Thomasville, North Carolina
Current Conditions -  °F | °C
As of 5:35 PM on Monday 22 Dec 2014 (Local Time) from KEXX Reporting Station
Haze Haze  
Wind Chill:   Ceiling: 400
Heat Index:   Visibility: 4mi
Dew Point:   Wind: 0mph
Humidity: 96%   Direction: NA
Pressure: 30.05"   Gusts: NA
Location:  35.88°N, 80.08°W
Report Text: KEXX 222235Z AUTO 00000KT 4SM BR OVC004 02/02 A3005 RMK AO2 T00230017
Loading
Personal Weather Stations






























Interactive Weather Map New forecast layout! Learn more

10-Day Weather Forecast

Advertisements
Track Severe Weather on mobile